sensor_id;sensor_type;location;lat;lon;timestamp;P1;durP1;ratioP1;P2;durP2;ratioP2
30770;SDS011;17502;51.698;-0.292;2022-07-23T00:00:04;1.73;;;1.05;;
30770;SDS011;17502;51.698;-0.292;2022-07-23T00:02:30;6.40;;;2.42;;
30770;SDS011;17502;51.698;-0.292;2022-07-23T00:04:56;1.85;;;1.13;;
30770;SDS011;17502;51.698;-0.292;2022-07-23T00:07:23;3.05;;;1.60;;
30770;SDS011;17502;51.698;-0.292;2022-07-23T00:09:49;1.73;;;1.30;;
30770;SDS011;17502;51.698;-0.292;2022-07-23T00:12:15;5.47;;;1.65;;
30770;SDS011;17502;51.698;-0.292;2022-07-23T00:14:41;2.15;;;1.17;;
30770;SDS011;17502;51.698;-0.292;2022-07-23T00:17:07;2.47;;;1.48;;
30770;SDS011;17502;51.698;-0.292;2022-07-23T00:19:33;2.75;;;0.93;;
30770;SDS011;17502;51.698;-0.292;2022-07-23T00:22:00;2.47;;;1.45;;
30770;SDS011;17502;51.698;-0.292;2022-07-23T00:24:26;1.75;;;1.30;;
30770;SDS011;17502;51.698;-0.292;2022-07-23T00:26:52;1.60;;;0.90;;
30770;SDS011;17502;51.698;-0.292;2022-07-23T00:29:18;1.13;;;1.02;;
30770;SDS011;17502;51.698;-0.292;2022-07-23T00:31:44;3.45;;;1.33;;
30770;SDS011;17502;51.698;-0.292;2022-07-23T00:34:11;1.90;;;1.27;;
30770;SDS011;17502;51.698;-0.292;2022-07-23T00:36:37;2.38;;;1.10;;
30770;SDS011;17502;51.698;-0.292;2022-07-23T00:39:03;5.20;;;1.33;;
30770;SDS011;17502;51.698;-0.292;2022-07-23T00:41:29;3.35;;;1.40;;
30770;SDS011;17502;51.698;-0.292;2022-07-23T00:43:55;4.45;;;1.40;;
30770;SDS011;17502;51.698;-0.292;2022-07-23T00:46:21;1.60;;;1.23;;
30770;SDS011;17502;51.698;-0.292;2022-07-23T00:48:48;2.30;;;1.48;;
30770;SDS011;17502;51.698;-0.292;2022-07-23T00:51:14;3.95;;;1.42;;
30770;SDS011;17502;51.698;-0.292;2022-07-23T00:53:41;4.40;;;1.85;;
30770;SDS011;17502;51.698;-0.292;2022-07-23T00:56:07;4.68;;;1.52;;
30770;SDS011;17502;51.698;-0.292;2022-07-23T00:58:34;6.45;;;1.88;;
30770;SDS011;17502;51.698;-0.292;2022-07-23T01:01:01;3.30;;;1.38;;
30770;SDS011;17502;51.698;-0.292;2022-07-23T01:03:27;1.88;;;0.73;;
30770;SDS011;17502;51.698;-0.292;2022-07-23T01:05:53;4.35;;;1.63;;
30770;SDS011;17502;51.698;-0.292;2022-07-23T01:08:19;4.60;;;1.27;;
30770;SDS011;17502;51.698;-0.292;2022-07-23T01:10:47;1.20;;;1.00;;
30770;SDS011;17502;51.698;-0.292;2022-07-23T01:13:14;3.83;;;1.40;;
30770;SDS011;17502;51.698;-0.292;2022-07-23T01:15:40;1.98;;;1.08;;
30770;SDS011;17502;51.698;-0.292;2022-07-23T01:18:07;1.30;;;1.20;;
30770;SDS011;17502;51.698;-0.292;2022-07-23T01:20:34;1.85;;;1.10;;
30770;SDS011;17502;51.698;-0.292;2022-07-23T01:23:00;3.05;;;1.27;;
30770;SDS011;17502;51.698;-0.292;2022-07-23T01:25:26;2.20;;;1.70;;
30770;SDS011;17502;51.698;-0.292;2022-07-23T01:27:53;4.80;;;1.67;;
30770;SDS011;17502;51.698;-0.292;2022-07-23T01:30:19;2.50;;;1.25;;
30770;SDS011;17502;51.698;-0.292;2022-07-23T01:32:45;3.75;;;0.90;;
30770;SDS011;17502;51.698;-0.292;2022-07-23T01:35:11;2.25;;;1.15;;
30770;SDS011;17502;51.698;-0.292;2022-07-23T01:37:38;3.63;;;1.42;;
30770;SDS011;17502;51.698;-0.292;2022-07-23T01:40:04;2.53;;;1.52;;
30770;SDS011;17502;51.698;-0.292;2022-07-23T01:42:31;4.88;;;1.35;;
30770;SDS011;17502;51.698;-0.292;2022-07-23T01:44:57;2.85;;;1.58;;
30770;SDS011;17502;51.698;-0.292;2022-07-23T01:47:23;2.90;;;1.85;;
30770;SDS011;17502;51.698;-0.292;2022-07-23T01:49:49;3.38;;;1.67;;
30770;SDS011;17502;51.698;-0.292;2022-07-23T01:52:16;2.20;;;1.20;;
30770;SDS011;17502;51.698;-0.292;2022-07-23T01:54:42;2.33;;;1.20;;
30770;SDS011;17502;51.698;-0.292;2022-07-23T01:57:08;2.03;;;1.30;;
30770;SDS011;17502;51.698;-0.292;2022-07-23T01:59:35;2.28;;;1.45;;
30770;SDS011;17502;51.698;-0.292;2022-07-23T02:02:02;2.13;;;1.55;;
30770;SDS011;17502;51.698;-0.292;2022-07-23T02:04:31;3.42;;;1.45;;
30770;SDS011;17502;51.698;-0.292;2022-07-23T02:07:00;5.32;;;2.30;;
30770;SDS011;17502;51.698;-0.292;2022-07-23T02:09:26;2.35;;;1.17;;
30770;SDS011;17502;51.698;-0.292;2022-07-23T02:11:53;4.97;;;1.30;;
30770;SDS011;17502;51.698;-0.292;2022-07-23T02:14:19;3.65;;;1.50;;
30770;SDS011;17502;51.698;-0.292;2022-07-23T02:16:45;2.22;;;1.58;;
30770;SDS011;17502;51.698;-0.292;2022-07-23T02:19:11;2.88;;;1.58;;
30770;SDS011;17502;51.698;-0.292;2022-07-23T02:21:38;4.28;;;1.45;;
30770;SDS011;17502;51.698;-0.292;2022-07-23T02:24:04;2.88;;;1.58;;
30770;SDS011;17502;51.698;-0.292;2022-07-23T02:26:31;5.82;;;1.73;;
30770;SDS011;17502;51.698;-0.292;2022-07-23T02:29:03;5.30;;;1.95;;
30770;SDS011;17502;51.698;-0.292;2022-07-23T02:31:29;7.15;;;1.45;;
30770;SDS011;17502;51.698;-0.292;2022-07-23T02:33:56;4.95;;;1.33;;
30770;SDS011;17502;51.698;-0.292;2022-07-23T02:36:22;1.90;;;1.02;;
30770;SDS011;17502;51.698;-0.292;2022-07-23T02:38:48;3.83;;;1.63;;
30770;SDS011;17502;51.698;-0.292;2022-07-23T02:41:14;1.42;;;1.27;;
30770;SDS011;17502;51.698;-0.292;2022-07-23T02:43:40;4.60;;;1.20;;
30770;SDS011;17502;51.698;-0.292;2022-07-23T02:46:07;1.92;;;1.55;;
30770;SDS011;17502;51.698;-0.292;2022-07-23T02:48:34;1.17;;;1.08;;
30770;SDS011;17502;51.698;-0.292;2022-07-23T02:51:00;2.47;;;1.33;;
30770;SDS011;17502;51.698;-0.292;2022-07-23T02:53:27;2.40;;;1.20;;
30770;SDS011;17502;51.698;-0.292;2022-07-23T02:55:53;6.30;;;2.28;;
30770;SDS011;17502;51.698;-0.292;2022-07-23T02:58:19;1.45;;;1.00;;
30770;SDS011;17502;51.698;-0.292;2022-07-23T03:00:46;3.25;;;1.52;;
30770;SDS011;17502;51.698;-0.292;2022-07-23T03:03:13;3.45;;;1.35;;
30770;SDS011;17502;51.698;-0.292;2022-07-23T03:05:39;4.57;;;1.30;;
30770;SDS011;17502;51.698;-0.292;2022-07-23T03:08:05;1.83;;;1.10;;
30770;SDS011;17502;51.698;-0.292;2022-07-23T03:10:31;1.88;;;1.17;;
30770;SDS011;17502;51.698;-0.292;2022-07-23T03:12:57;5.50;;;1.58;;
30770;SDS011;17502;51.698;-0.292;2022-07-23T03:15:23;3.05;;;0.90;;
30770;SDS011;17502;51.698;-0.292;2022-07-23T03:17:49;4.78;;;1.33;;
30770;SDS011;17502;51.698;-0.292;2022-07-23T03:20:16;3.00;;;1.27;;
30770;SDS011;17502;51.698;-0.292;2022-07-23T03:22:42;4.07;;;1.33;;
30770;SDS011;17502;51.698;-0.292;2022-07-23T03:25:08;1.58;;;1.00;;
30770;SDS011;17502;51.698;-0.292;2022-07-23T03:27:34;3.72;;;1.45;;
30770;SDS011;17502;51.698;-0.292;2022-07-23T03:30:00;1.25;;;0.95;;
30770;SDS011;17502;51.698;-0.292;2022-07-23T03:32:27;5.43;;;1.33;;
30770;SDS011;17502;51.698;-0.292;2022-07-23T03:34:53;2.78;;;1.10;;
30770;SDS011;17502;51.698;-0.292;2022-07-23T03:37:19;5.03;;;1.17;;
30770;SDS011;17502;51.698;-0.292;2022-07-23T03:39:45;7.85;;;1.48;;
30770;SDS011;17502;51.698;-0.292;2022-07-23T03:42:11;2.00;;;1.63;;
30770;SDS011;17502;51.698;-0.292;2022-07-23T03:44:38;2.63;;;1.35;;
30770;SDS011;17502;51.698;-0.292;2022-07-23T03:47:04;2.25;;;1.52;;
30770;SDS011;17502;51.698;-0.292;2022-07-23T03:49:31;5.40;;;1.77;;
30770;SDS011;17502;51.698;-0.292;2022-07-23T03:51:58;4.15;;;1.45;;
30770;SDS011;17502;51.698;-0.292;2022-07-23T03:54:24;8.52;;;2.10;;
30770;SDS011;17502;51.698;-0.292;2022-07-23T03:56:50;3.63;;;1.38;;
30770;SDS011;17502;51.698;-0.292;2022-07-23T03:59:16;1.45;;;1.27;;
30770;SDS011;17502;51.698;-0.292;2022-07-23T04:01:42;3.13;;;1.27;;
30770;SDS011;17502;51.698;-0.292;2022-07-23T04:04:08;9.57;;;1.45;;
30770;SDS011;17502;51.698;-0.292;2022-07-23T04:06:34;8.43;;;2.08;;
30770;SDS011;17502;51.698;-0.292;2022-07-23T04:09:01;8.80;;;1.45;;
30770;SDS011;17502;51.698;-0.292;2022-07-23T04:11:27;2.17;;;1.40;;
30770;SDS011;17502;51.698;-0.292;2022-07-23T04:13:53;1.52;;;0.95;;
30770;SDS011;17502;51.698;-0.292;2022-07-23T04:16:19;2.42;;;1.30;;
30770;SDS011;17502;51.698;-0.292;2022-07-23T04:18:45;4.13;;;1.95;;
30770;SDS011;17502;51.698;-0.292;2022-07-23T04:21:11;7.57;;;1.55;;
30770;SDS011;17502;51.698;-0.292;2022-07-23T04:23:38;7.43;;;1.60;;
30770;SDS011;17502;51.698;-0.292;2022-07-23T04:26:04;1.38;;;1.15;;
30770;SDS011;17502;51.698;-0.292;2022-07-23T04:28:31;3.08;;;1.58;;
30770;SDS011;17502;51.698;-0.292;2022-07-23T04:30:57;1.67;;;1.00;;
30770;SDS011;17502;51.698;-0.292;2022-07-23T04:33:23;2.38;;;1.40;;
30770;SDS011;17502;51.698;-0.292;2022-07-23T04:35:50;2.30;;;1.40;;
30770;SDS011;17502;51.698;-0.292;2022-07-23T04:38:16;4.68;;;1.48;;
30770;SDS011;17502;51.698;-0.292;2022-07-23T04:40:42;4.90;;;1.90;;
30770;SDS011;17502;51.698;-0.292;2022-07-23T04:43:08;5.47;;;1.42;;
30770;SDS011;17502;51.698;-0.292;2022-07-23T04:45:34;1.30;;;1.20;;
30770;SDS011;17502;51.698;-0.292;2022-07-23T04:48:00;3.00;;;1.40;;
30770;SDS011;17502;51.698;-0.292;2022-07-23T04:50:26;3.33;;;1.48;;
30770;SDS011;17502;51.698;-0.292;2022-07-23T04:52:52;4.18;;;1.25;;
30770;SDS011;17502;51.698;-0.292;2022-07-23T04:55:18;3.40;;;1.83;;
30770;SDS011;17502;51.698;-0.292;2022-07-23T04:57:45;14.95;;;1.80;;
30770;SDS011;17502;51.698;-0.292;2022-07-23T05:00:11;5.97;;;1.38;;
30770;SDS011;17502;51.698;-0.292;2022-07-23T05:02:37;1.70;;;1.40;;
30770;SDS011;17502;51.698;-0.292;2022-07-23T05:05:03;9.63;;;1.63;;
30770;SDS011;17502;51.698;-0.292;2022-07-23T05:07:29;2.20;;;1.50;;
30770;SDS011;17502;51.698;-0.292;2022-07-23T05:09:56;3.40;;;1.63;;
30770;SDS011;17502;51.698;-0.292;2022-07-23T05:12:22;2.20;;;1.30;;
30770;SDS011;17502;51.698;-0.292;2022-07-23T05:14:48;2.92;;;1.80;;
30770;SDS011;17502;51.698;-0.292;2022-07-23T05:17:14;4.95;;;2.33;;
30770;SDS011;17502;51.698;-0.292;2022-07-23T05:19:40;3.42;;;1.85;;
30770;SDS011;17502;51.698;-0.292;2022-07-23T05:22:06;3.60;;;1.77;;
30770;SDS011;17502;51.698;-0.292;2022-07-23T05:24:32;3.05;;;1.85;;
30770;SDS011;17502;51.698;-0.292;2022-07-23T05:26:58;2.95;;;1.85;;
30770;SDS011;17502;51.698;-0.292;2022-07-23T05:29:24;3.40;;;1.40;;
30770;SDS011;17502;51.698;-0.292;2022-07-23T05:31:50;3.75;;;2.05;;
30770;SDS011;17502;51.698;-0.292;2022-07-23T05:34:16;9.63;;;1.52;;
30770;SDS011;17502;51.698;-0.292;2022-07-23T05:36:42;1.85;;;1.45;;
30770;SDS011;17502;51.698;-0.292;2022-07-23T05:39:09;6.47;;;1.90;;
30770;SDS011;17502;51.698;-0.292;2022-07-23T05:41:35;6.43;;;2.28;;
30770;SDS011;17502;51.698;-0.292;2022-07-23T05:44:01;4.88;;;2.38;;
30770;SDS011;17502;51.698;-0.292;2022-07-23T05:46:28;9.50;;;2.53;;
30770;SDS011;17502;51.698;-0.292;2022-07-23T05:48:54;5.95;;;3.20;;
30770;SDS011;17502;51.698;-0.292;2022-07-23T05:51:21;10.95;;;3.60;;
30770;SDS011;17502;51.698;-0.292;2022-07-23T05:53:47;13.73;;;3.88;;
30770;SDS011;17502;51.698;-0.292;2022-07-23T05:56:14;12.05;;;2.75;;
30770;SDS011;17502;51.698;-0.292;2022-07-23T05:58:40;8.20;;;3.85;;
30770;SDS011;17502;51.698;-0.292;2022-07-23T06:01:06;10.60;;;4.05;;
30770;SDS011;17502;51.698;-0.292;2022-07-23T06:03:33;7.00;;;3.40;;
30770;SDS011;17502;51.698;-0.292;2022-07-23T06:05:59;9.95;;;3.10;;
30770;SDS011;17502;51.698;-0.292;2022-07-23T06:08:25;6.78;;;3.10;;
30770;SDS011;17502;51.698;-0.292;2022-07-23T06:10:51;8.18;;;3.60;;
30770;SDS011;17502;51.698;-0.292;2022-07-23T06:13:18;9.25;;;2.97;;
30770;SDS011;17502;51.698;-0.292;2022-07-23T06:15:44;10.82;;;4.30;;
30770;SDS011;17502;51.698;-0.292;2022-07-23T06:18:10;11.02;;;2.78;;
30770;SDS011;17502;51.698;-0.292;2022-07-23T06:20:36;8.05;;;3.45;;
30770;SDS011;17502;51.698;-0.292;2022-07-23T06:23:03;11.10;;;3.85;;
30770;SDS011;17502;51.698;-0.292;2022-07-23T06:25:29;8.05;;;3.55;;
30770;SDS011;17502;51.698;-0.292;2022-07-23T06:27:56;10.45;;;3.53;;
30770;SDS011;17502;51.698;-0.292;2022-07-23T06:30:22;11.30;;;3.25;;
30770;SDS011;17502;51.698;-0.292;2022-07-23T06:32:48;4.80;;;2.35;;
30770;SDS011;17502;51.698;-0.292;2022-07-23T06:35:15;5.57;;;3.13;;
30770;SDS011;17502;51.698;-0.292;2022-07-23T06:37:41;6.72;;;3.13;;
30770;SDS011;17502;51.698;-0.292;2022-07-23T06:40:07;14.70;;;3.00;;
30770;SDS011;17502;51.698;-0.292;2022-07-23T06:42:33;5.18;;;2.53;;
30770;SDS011;17502;51.698;-0.292;2022-07-23T06:45:02;8.68;;;3.45;;
30770;SDS011;17502;51.698;-0.292;2022-07-23T06:47:29;5.90;;;2.45;;
30770;SDS011;17502;51.698;-0.292;2022-07-23T06:49:55;4.28;;;2.22;;
30770;SDS011;17502;51.698;-0.292;2022-07-23T06:52:21;5.90;;;2.65;;
30770;SDS011;17502;51.698;-0.292;2022-07-23T06:54:47;8.18;;;2.75;;
30770;SDS011;17502;51.698;-0.292;2022-07-23T06:57:14;10.75;;;2.47;;
30770;SDS011;17502;51.698;-0.292;2022-07-23T06:59:41;8.60;;;2.40;;
30770;SDS011;17502;51.698;-0.292;2022-07-23T07:02:07;6.95;;;2.80;;
30770;SDS011;17502;51.698;-0.292;2022-07-23T07:04:34;11.73;;;3.47;;
30770;SDS011;17502;51.698;-0.292;2022-07-23T07:07:01;8.07;;;3.40;;
30770;SDS011;17502;51.698;-0.292;2022-07-23T07:09:27;7.78;;;2.85;;
30770;SDS011;17502;51.698;-0.292;2022-07-23T07:11:54;7.55;;;3.55;;
30770;SDS011;17502;51.698;-0.292;2022-07-23T07:14:20;11.18;;;3.60;;
30770;SDS011;17502;51.698;-0.292;2022-07-23T07:16:46;8.35;;;4.30;;
30770;SDS011;17502;51.698;-0.292;2022-07-23T07:19:13;17.17;;;5.03;;
30770;SDS011;17502;51.698;-0.292;2022-07-23T07:21:39;11.95;;;4.15;;
30770;SDS011;17502;51.698;-0.292;2022-07-23T07:24:05;8.65;;;4.63;;
30770;SDS011;17502;51.698;-0.292;2022-07-23T07:26:31;10.35;;;4.53;;
30770;SDS011;17502;51.698;-0.292;2022-07-23T07:28:57;13.52;;;4.45;;
30770;SDS011;17502;51.698;-0.292;2022-07-23T07:31:23;15.48;;;3.80;;
30770;SDS011;17502;51.698;-0.292;2022-07-23T07:33:50;13.98;;;4.07;;
30770;SDS011;17502;51.698;-0.292;2022-07-23T07:36:16;14.65;;;4.57;;
30770;SDS011;17502;51.698;-0.292;2022-07-23T07:38:42;11.15;;;4.05;;
30770;SDS011;17502;51.698;-0.292;2022-07-23T07:41:08;12.52;;;4.68;;
30770;SDS011;17502;51.698;-0.292;2022-07-23T07:43:35;9.20;;;3.83;;
30770;SDS011;17502;51.698;-0.292;2022-07-23T07:46:02;8.52;;;3.67;;
30770;SDS011;17502;51.698;-0.292;2022-07-23T07:48:28;17.27;;;4.72;;
30770;SDS011;17502;51.698;-0.292;2022-07-23T07:50:54;9.95;;;3.88;;
30770;SDS011;17502;51.698;-0.292;2022-07-23T07:53:20;10.25;;;4.05;;
30770;SDS011;17502;51.698;-0.292;2022-07-23T07:55:46;5.78;;;2.97;;
30770;SDS011;17502;51.698;-0.292;2022-07-23T07:58:12;11.75;;;3.95;;
30770;SDS011;17502;51.698;-0.292;2022-07-23T08:00:38;5.68;;;3.13;;
30770;SDS011;17502;51.698;-0.292;2022-07-23T08:03:05;8.13;;;3.55;;
30770;SDS011;17502;51.698;-0.292;2022-07-23T08:05:31;7.07;;;3.67;;
30770;SDS011;17502;51.698;-0.292;2022-07-23T08:07:58;12.07;;;3.85;;
30770;SDS011;17502;51.698;-0.292;2022-07-23T08:10:24;7.88;;;3.42;;
30770;SDS011;17502;51.698;-0.292;2022-07-23T08:12:51;8.38;;;3.00;;
30770;SDS011;17502;51.698;-0.292;2022-07-23T08:15:26;6.25;;;3.65;;
30770;SDS011;17502;51.698;-0.292;2022-07-23T08:17:52;11.85;;;2.90;;
30770;SDS011;17502;51.698;-0.292;2022-07-23T08:20:19;8.77;;;4.32;;
30770;SDS011;17502;51.698;-0.292;2022-07-23T08:22:47;9.88;;;3.55;;
30770;SDS011;17502;51.698;-0.292;2022-07-23T08:25:14;7.53;;;3.30;;
30770;SDS011;17502;51.698;-0.292;2022-07-23T08:27:40;4.47;;;2.75;;
30770;SDS011;17502;51.698;-0.292;2022-07-23T08:30:07;4.18;;;2.85;;
30770;SDS011;17502;51.698;-0.292;2022-07-23T08:32:33;7.82;;;2.63;;
30770;SDS011;17502;51.698;-0.292;2022-07-23T08:34:59;4.85;;;2.00;;
30770;SDS011;17502;51.698;-0.292;2022-07-23T08:37:25;13.07;;;2.95;;
30770;SDS011;17502;51.698;-0.292;2022-07-23T08:39:51;7.30;;;3.15;;
30770;SDS011;17502;51.698;-0.292;2022-07-23T08:42:17;5.50;;;1.90;;
30770;SDS011;17502;51.698;-0.292;2022-07-23T08:44:44;4.65;;;2.03;;
30770;SDS011;17502;51.698;-0.292;2022-07-23T08:47:12;5.95;;;2.30;;
30770;SDS011;17502;51.698;-0.292;2022-07-23T08:49:39;4.55;;;2.13;;
30770;SDS011;17502;51.698;-0.292;2022-07-23T08:52:05;7.97;;;2.13;;
30770;SDS011;17502;51.698;-0.292;2022-07-23T08:54:31;5.72;;;2.72;;
30770;SDS011;17502;51.698;-0.292;2022-07-23T08:56:57;5.53;;;1.70;;
30770;SDS011;17502;51.698;-0.292;2022-07-23T08:59:23;3.15;;;2.35;;
30770;SDS011;17502;51.698;-0.292;2022-07-23T09:01:51;3.38;;;2.10;;
30770;SDS011;17502;51.698;-0.292;2022-07-23T09:04:17;2.83;;;1.92;;
30770;SDS011;17502;51.698;-0.292;2022-07-23T09:06:44;4.53;;;1.92;;
30770;SDS011;17502;51.698;-0.292;2022-07-23T09:09:20;5.85;;;1.88;;
30770;SDS011;17502;51.698;-0.292;2022-07-23T09:11:47;3.05;;;1.77;;
30770;SDS011;17502;51.698;-0.292;2022-07-23T09:14:13;1.85;;;1.25;;
30770;SDS011;17502;51.698;-0.292;2022-07-23T09:16:41;1.40;;;1.23;;
30770;SDS011;17502;51.698;-0.292;2022-07-23T09:19:09;2.22;;;1.23;;
30770;SDS011;17502;51.698;-0.292;2022-07-23T09:21:37;4.90;;;2.17;;
30770;SDS011;17502;51.698;-0.292;2022-07-23T09:24:08;2.67;;;1.35;;
30770;SDS011;17502;51.698;-0.292;2022-07-23T09:26:35;2.05;;;1.85;;
30770;SDS011;17502;51.698;-0.292;2022-07-23T09:29:06;7.15;;;2.17;;
30770;SDS011;17502;51.698;-0.292;2022-07-23T09:31:35;5.45;;;2.20;;
30770;SDS011;17502;51.698;-0.292;2022-07-23T09:35:05;6.57;;;1.70;;
30770;SDS011;17502;51.698;-0.292;2022-07-23T09:37:32;3.13;;;1.83;;
30770;SDS011;17502;51.698;-0.292;2022-07-23T11:21:40;0.98;;;0.98;;
30770;SDS011;17502;51.698;-0.292;2022-07-23T11:24:11;1.52;;;1.08;;
30770;SDS011;17502;51.698;-0.292;2022-07-23T11:32:06;1.10;;;1.00;;
30770;SDS011;17502;51.698;-0.292;2022-07-23T11:34:33;2.42;;;1.23;;
30770;SDS011;17502;51.698;-0.292;2022-07-23T11:37:00;4.22;;;1.17;;
30770;SDS011;17502;51.698;-0.292;2022-07-23T11:39:28;3.17;;;1.63;;
30770;SDS011;17502;51.698;-0.292;2022-07-23T11:41:55;3.83;;;0.90;;
30770;SDS011;17502;51.698;-0.292;2022-07-23T11:44:28;1.38;;;1.08;;
30770;SDS011;17502;51.698;-0.292;2022-07-23T11:46:55;1.48;;;1.23;;
30770;SDS011;17502;51.698;-0.292;2022-07-23T11:49:22;1.08;;;0.60;;
30770;SDS011;17502;51.698;-0.292;2022-07-23T11:52:08;2.05;;;1.23;;
30770;SDS011;17502;51.698;-0.292;2022-07-23T11:54:36;2.08;;;1.27;;
30770;SDS011;17502;51.698;-0.292;2022-07-23T11:57:03;2.15;;;1.05;;
30770;SDS011;17502;51.698;-0.292;2022-07-23T11:59:31;0.95;;;0.90;;
30770;SDS011;17502;51.698;-0.292;2022-07-23T12:01:58;1.73;;;1.13;;
30770;SDS011;17502;51.698;-0.292;2022-07-23T12:04:25;0.93;;;0.65;;
30770;SDS011;17502;51.698;-0.292;2022-07-23T12:07:03;0.60;;;0.50;;
30770;SDS011;17502;51.698;-0.292;2022-07-23T12:09:29;1.98;;;1.05;;
30770;SDS011;17502;51.698;-0.292;2022-07-23T12:12:01;3.53;;;0.80;;
30770;SDS011;17502;51.698;-0.292;2022-07-23T12:14:27;3.03;;;0.82;;
30770;SDS011;17502;51.698;-0.292;2022-07-23T12:17:06;1.30;;;1.08;;
30770;SDS011;17502;51.698;-0.292;2022-07-23T12:19:32;3.35;;;0.90;;
30770;SDS011;17502;51.698;-0.292;2022-07-23T12:21:58;1.80;;;0.98;;
30770;SDS011;17502;51.698;-0.292;2022-07-23T12:24:24;0.55;;;0.55;;
30770;SDS011;17502;51.698;-0.292;2022-07-23T12:27:10;3.35;;;0.90;;
30770;SDS011;17502;51.698;-0.292;2022-07-23T12:29:36;0.98;;;0.90;;
30770;SDS011;17502;51.698;-0.292;2022-07-23T12:32:15;2.95;;;1.77;;
30770;SDS011;17502;51.698;-0.292;2022-07-23T12:34:42;2.28;;;1.10;;
30770;SDS011;17502;51.698;-0.292;2022-07-23T12:37:08;1.45;;;0.73;;
30770;SDS011;17502;51.698;-0.292;2022-07-23T12:39:34;4.97;;;0.90;;
30770;SDS011;17502;51.698;-0.292;2022-07-23T12:42:00;2.13;;;0.98;;
30770;SDS011;17502;51.698;-0.292;2022-07-23T12:44:26;1.40;;;0.80;;
30770;SDS011;17502;51.698;-0.292;2022-07-23T12:46:52;4.40;;;1.30;;
30770;SDS011;17502;51.698;-0.292;2022-07-23T12:49:25;1.17;;;0.73;;
30770;SDS011;17502;51.698;-0.292;2022-07-23T12:51:51;3.53;;;0.63;;
30770;SDS011;17502;51.698;-0.292;2022-07-23T12:54:17;1.98;;;0.85;;
30770;SDS011;17502;51.698;-0.292;2022-07-23T12:56:44;2.30;;;0.85;;
30770;SDS011;17502;51.698;-0.292;2022-07-23T12:59:11;2.08;;;0.52;;
30770;SDS011;17502;51.698;-0.292;2022-07-23T13:01:41;1.35;;;0.65;;
30770;SDS011;17502;51.698;-0.292;2022-07-23T13:04:12;0.73;;;0.50;;
30770;SDS011;17502;51.698;-0.292;2022-07-23T13:06:40;1.80;;;0.95;;
30770;SDS011;17502;51.698;-0.292;2022-07-23T13:09:08;2.10;;;0.50;;
30770;SDS011;17502;51.698;-0.292;2022-07-23T13:11:34;1.67;;;0.85;;
30770;SDS011;17502;51.698;-0.292;2022-07-23T13:14:00;6.07;;;0.77;;
30770;SDS011;17502;51.698;-0.292;2022-07-23T13:16:27;1.05;;;0.68;;
30770;SDS011;17502;51.698;-0.292;2022-07-23T13:18:54;2.63;;;0.60;;
30770;SDS011;17502;51.698;-0.292;2022-07-23T13:21:21;1.08;;;0.60;;
30770;SDS011;17502;51.698;-0.292;2022-07-23T13:23:47;1.85;;;0.85;;
30770;SDS011;17502;51.698;-0.292;2022-07-23T13:26:13;0.30;;;0.30;;
30770;SDS011;17502;51.698;-0.292;2022-07-23T13:28:39;0.68;;;0.60;;
30770;SDS011;17502;51.698;-0.292;2022-07-23T13:31:06;2.30;;;1.00;;
30770;SDS011;17502;51.698;-0.292;2022-07-23T13:33:32;0.47;;;0.47;;
30770;SDS011;17502;51.698;-0.292;2022-07-23T13:35:58;1.70;;;0.70;;
30770;SDS011;17502;51.698;-0.292;2022-07-23T13:38:25;1.23;;;0.75;;
30770;SDS011;17502;51.698;-0.292;2022-07-23T13:40:51;1.40;;;0.70;;
30770;SDS011;17502;51.698;-0.292;2022-07-23T13:43:19;0.98;;;0.70;;
30770;SDS011;17502;51.698;-0.292;2022-07-23T13:45:45;0.98;;;0.80;;
30770;SDS011;17502;51.698;-0.292;2022-07-23T13:48:12;0.93;;;0.50;;
30770;SDS011;17502;51.698;-0.292;2022-07-23T13:50:39;0.98;;;0.63;;
30770;SDS011;17502;51.698;-0.292;2022-07-23T13:53:06;1.15;;;0.60;;
30770;SDS011;17502;51.698;-0.292;2022-07-23T13:55:32;1.17;;;0.75;;
30770;SDS011;17502;51.698;-0.292;2022-07-23T13:57:59;0.95;;;0.50;;
30770;SDS011;17502;51.698;-0.292;2022-07-23T14:00:26;0.65;;;0.65;;
30770;SDS011;17502;51.698;-0.292;2022-07-23T14:02:52;1.10;;;0.70;;
30770;SDS011;17502;51.698;-0.292;2022-07-23T14:05:19;1.55;;;1.20;;
30770;SDS011;17502;51.698;-0.292;2022-07-23T14:07:45;1.00;;;0.90;;
30770;SDS011;17502;51.698;-0.292;2022-07-23T14:10:14;1.45;;;0.70;;
30770;SDS011;17502;51.698;-0.292;2022-07-23T14:12:40;2.63;;;0.70;;
30770;SDS011;17502;51.698;-0.292;2022-07-23T14:15:07;1.08;;;0.70;;
30770;SDS011;17502;51.698;-0.292;2022-07-23T14:17:35;1.13;;;0.70;;
30770;SDS011;17502;51.698;-0.292;2022-07-23T14:20:01;5.38;;;1.27;;
30770;SDS011;17502;51.698;-0.292;2022-07-23T14:22:27;2.92;;;1.30;;
30770;SDS011;17502;51.698;-0.292;2022-07-23T14:24:53;1.55;;;0.90;;
30770;SDS011;17502;51.698;-0.292;2022-07-23T14:27:22;0.95;;;0.55;;
30770;SDS011;17502;51.698;-0.292;2022-07-23T14:29:48;1.33;;;0.93;;
30770;SDS011;17502;51.698;-0.292;2022-07-23T14:32:14;1.70;;;0.70;;
30770;SDS011;17502;51.698;-0.292;2022-07-23T14:34:41;2.63;;;0.65;;
30770;SDS011;17502;51.698;-0.292;2022-07-23T14:37:07;2.17;;;0.63;;
30770;SDS011;17502;51.698;-0.292;2022-07-23T14:39:35;1.35;;;1.02;;
30770;SDS011;17502;51.698;-0.292;2022-07-23T14:42:01;1.38;;;1.27;;
30770;SDS011;17502;51.698;-0.292;2022-07-23T14:44:27;1.63;;;1.27;;
30770;SDS011;17502;51.698;-0.292;2022-07-23T14:46:53;1.90;;;0.82;;
30770;SDS011;17502;51.698;-0.292;2022-07-23T14:49:19;1.80;;;1.33;;
30770;SDS011;17502;51.698;-0.292;2022-07-23T14:51:45;1.38;;;0.80;;
30770;SDS011;17502;51.698;-0.292;2022-07-23T14:54:11;0.95;;;0.80;;
30770;SDS011;17502;51.698;-0.292;2022-07-23T14:56:39;0.68;;;0.68;;
30770;SDS011;17502;51.698;-0.292;2022-07-23T14:59:05;0.75;;;0.70;;
30770;SDS011;17502;51.698;-0.292;2022-07-23T15:01:31;1.13;;;0.93;;
30770;SDS011;17502;51.698;-0.292;2022-07-23T15:03:57;0.57;;;0.57;;
30770;SDS011;17502;51.698;-0.292;2022-07-23T15:06:23;0.80;;;0.80;;
30770;SDS011;17502;51.698;-0.292;2022-07-23T15:08:49;0.45;;;0.45;;
30770;SDS011;17502;51.698;-0.292;2022-07-23T15:11:16;0.88;;;0.68;;
30770;SDS011;17502;51.698;-0.292;2022-07-23T15:13:42;1.92;;;0.93;;
30770;SDS011;17502;51.698;-0.292;2022-07-23T15:16:08;2.50;;;0.80;;
30770;SDS011;17502;51.698;-0.292;2022-07-23T15:18:34;2.30;;;1.00;;
30770;SDS011;17502;51.698;-0.292;2022-07-23T15:21:01;11.90;;;1.65;;
30770;SDS011;17502;51.698;-0.292;2022-07-23T15:23:28;1.85;;;0.80;;
30770;SDS011;17502;51.698;-0.292;2022-07-23T15:25:57;0.70;;;0.70;;
30770;SDS011;17502;51.698;-0.292;2022-07-23T15:28:23;2.00;;;0.82;;
30770;SDS011;17502;51.698;-0.292;2022-07-23T15:30:50;1.98;;;0.90;;
30770;SDS011;17502;51.698;-0.292;2022-07-23T15:33:17;4.03;;;0.90;;
30770;SDS011;17502;51.698;-0.292;2022-07-23T15:35:43;0.93;;;0.85;;
30770;SDS011;17502;51.698;-0.292;2022-07-23T15:38:09;2.17;;;0.75;;
30770;SDS011;17502;51.698;-0.292;2022-07-23T15:40:35;0.60;;;0.60;;
30770;SDS011;17502;51.698;-0.292;2022-07-23T15:43:02;0.50;;;0.50;;
30770;SDS011;17502;51.698;-0.292;2022-07-23T15:45:29;3.08;;;1.20;;
30770;SDS011;17502;51.698;-0.292;2022-07-23T15:47:56;1.92;;;0.80;;
30770;SDS011;17502;51.698;-0.292;2022-07-23T15:50:22;5.00;;;0.80;;
30770;SDS011;17502;51.698;-0.292;2022-07-23T15:52:48;1.23;;;1.02;;
30770;SDS011;17502;51.698;-0.292;2022-07-23T15:55:15;4.10;;;0.80;;
30770;SDS011;17502;51.698;-0.292;2022-07-23T15:57:44;1.27;;;1.00;;
30770;SDS011;17502;51.698;-0.292;2022-07-23T16:00:10;0.93;;;0.82;;
30770;SDS011;17502;51.698;-0.292;2022-07-23T16:02:37;0.70;;;0.70;;
30770;SDS011;17502;51.698;-0.292;2022-07-23T16:05:03;1.30;;;0.90;;
30770;SDS011;17502;51.698;-0.292;2022-07-23T16:07:30;0.82;;;0.77;;
30770;SDS011;17502;51.698;-0.292;2022-07-23T16:09:57;6.55;;;0.98;;
30770;SDS011;17502;51.698;-0.292;2022-07-23T16:12:23;1.10;;;0.98;;
30770;SDS011;17502;51.698;-0.292;2022-07-23T16:14:50;1.08;;;0.90;;
30770;SDS011;17502;51.698;-0.292;2022-07-23T16:17:16;1.90;;;0.57;;